LFBT/LDE METAR and TAF weather

Enter ICAO airport designator
Station Type Date Time Source
LFBT METAR 2021/09/28 16:30 UTC NOAA

LFBT 281630Z AUTO VRB02KT 9999 BKN028 OVC110 20/14 Q1021 TEMPO 4000 -RA BKN010 OVC030


Station Type Date Time Source
LFBT Decoded METAR 2021/09/28 16:30 UTC NOAA

Tarbes Ossun Lourdes, France (LFBT) 43-11N 000-00W 363M
Sep 28, 2021 - 12:30 PM EDT / 2021.09.28 1630 UTC
Wind: Variable at 2 MPH (2 KT):0
Visibility: greater than 7 mile(s):0
Sky conditions: overcast
Temperature: 68 F (20 C)
Dew Point: 57 F (14 C)
Relative Humidity: 68%
Pressure (altimeter): 30.15 in. Hg (1021 hPa)
ob: LFBT 281630Z AUTO VRB02KT 9999 BKN028 OVC110 20/14 Q1021 TEMPO 4000 -RA BKN010 OVC030
cycle: 16

Station Type Date Time Source
LFBT TAF 2021/09/28 15:48 UTC NOAA

TAF
AMD LFBT 281541Z 2815/2912 36005KT 9999 BKN030
BECMG 2816/2817 27010KT PROB30
TEMPO 2818/2824 4000 -RA BKN010 OVC030
TEMPO 2906/2911 CAVOK

Example: see airport list